Time;durP1;ratioP1;P1;durP2;ratioP2;P2;SDS_P1;SDS_P2;PMS_P1;PMS_P2;Temp;Humidity;BMP_temperature;BMP_pressure;BME280_temperature;BME280_humidity;BME280_pressure;Samples;Min_cycle;Max_cycle;Signal;HPM_P1;HPM_P2
2022/12/07 00:00:53;;;;;;;11.47;5.13;;;2.50;99.90;;;;;;5047581;28;20425;-69
2022/12/07 00:03:19;;;;;;;8.60;4.20;;;2.50;99.90;;;;;;5042916;28;20421;-69
2022/12/07 00:05:44;;;;;;;10.30;4.50;;;2.50;99.90;;;;;;5036224;28;20424;-70
2022/12/07 00:08:10;;;;;;;6.93;4.10;;;2.50;99.90;;;;;;5045658;28;20186;-69
2022/12/07 00:10:35;;;;;;;5.87;3.67;;;2.50;99.90;;;;;;5052625;28;20534;-69
2022/12/07 00:13:01;;;;;;;8.00;3.97;;;2.50;99.90;;;;;;5039150;28;20220;-69
2022/12/07 00:15:27;;;;;;;11.27;4.80;;;2.50;99.90;;;;;;5052021;28;20264;-69
2022/12/07 00:17:52;;;;;;;11.27;4.50;;;2.50;99.90;;;;;;5050024;28;20560;-69
2022/12/07 00:20:18;;;;;;;6.20;3.27;;;2.50;99.90;;;;;;5036052;28;20579;-69
2022/12/07 00:22:43;;;;;;;15.07;4.13;;;2.50;99.90;;;;;;5036704;28;20224;-69
2022/12/07 00:25:09;;;;;;;5.77;3.80;;;2.50;99.90;;;;;;5039046;28;20187;-69
2022/12/07 00:27:35;;;;;;;7.47;3.70;;;2.40;99.90;;;;;;5045092;28;20697;-69
2022/12/07 00:30:00;;;;;;;7.67;3.70;;;2.40;99.90;;;;;;5051947;28;20182;-69
2022/12/07 00:32:26;;;;;;;4.90;3.10;;;2.40;99.90;;;;;;5052288;28;20630;-69
2022/12/07 00:34:52;;;;;;;7.43;4.13;;;2.50;99.90;;;;;;5047575;28;20190;-69
2022/12/07 00:37:17;;;;;;;8.17;4.33;;;2.50;99.90;;;;;;5048259;28;20178;-69
2022/12/07 00:39:43;;;;;;;9.77;3.93;;;2.50;99.90;;;;;;5051476;28;20209;-69
2022/12/07 00:42:08;;;;;;;7.73;3.60;;;2.50;99.90;;;;;;5044407;28;20212;-69
2022/12/07 00:44:34;;;;;;;7.43;3.00;;;2.60;99.90;;;;;;5029150;28;20646;-69
2022/12/07 00:46:59;;;;;;;5.73;3.03;;;2.60;99.90;;;;;;5047944;28;20670;-69
2022/12/07 00:49:25;;;;;;;10.60;4.17;;;2.60;99.90;;;;;;5052081;28;20189;-69
2022/12/07 00:51:51;;;;;;;8.63;3.90;;;2.60;99.90;;;;;;5041829;28;21482;-69
2022/12/07 00:54:16;;;;;;;8.20;4.77;;;2.60;99.90;;;;;;5051791;28;20189;-69
2022/12/07 00:56:42;;;;;;;17.30;4.10;;;2.60;99.90;;;;;;5051864;28;20189;-69
2022/12/07 00:59:14;;;;;;;7.33;4.27;;;2.60;99.90;;;;;;5044521;28;20277;-69
2022/12/07 01:01:39;;;;;;;9.37;4.83;;;2.60;99.90;;;;;;5048545;28;20189;-69
2022/12/07 01:04:05;;;;;;;6.50;3.90;;;2.60;99.90;;;;;;5045499;28;20436;-69
2022/12/07 01:06:32;;;;;;;5.90;3.10;;;2.60;99.90;;;;;;5043108;28;20198;-69
2022/12/07 01:08:58;;;;;;;5.43;3.60;;;2.60;99.90;;;;;;5039889;28;20170;-69
2022/12/07 01:11:26;;;;;;;8.30;4.57;;;2.60;99.90;;;;;;5031531;28;20405;-69
2022/12/07 01:13:53;;;;;;;9.73;4.10;;;2.60;99.90;;;;;;5042603;28;20889;-69
2022/12/07 01:16:20;;;;;;;6.10;3.90;;;2.60;99.90;;;;;;5041760;28;20424;-69
2022/12/07 01:18:49;;;;;;;5.23;2.83;;;2.60;99.90;;;;;;5043691;28;20511;-66
2022/12/07 01:21:18;;;;;;;7.63;4.27;;;2.50;99.90;;;;;;5043040;28;20431;-67
2022/12/07 01:23:44;;;;;;;9.43;4.13;;;2.50;99.90;;;;;;5050730;28;20459;-67
2022/12/07 01:26:12;;;;;;;11.70;5.73;;;2.50;99.90;;;;;;5049646;28;20472;-67
2022/12/07 01:28:39;;;;;;;7.73;4.27;;;2.60;99.90;;;;;;5050606;28;20974;-67
2022/12/07 01:31:16;;;;;;;14.07;5.07;;;2.60;99.90;;;;;;5050513;28;20495;-67
2022/12/07 01:33:45;;;;;;;11.47;4.70;;;2.60;99.90;;;;;;5039393;28;20453;-67
2022/12/07 01:36:26;;;;;;;7.27;3.90;;;2.50;99.90;;;;;;5039552;28;20427;-67
2022/12/07 01:38:56;;;;;;;6.40;3.40;;;2.50;99.90;;;;;;5043021;28;20419;-67
2022/12/07 01:41:23;;;;;;;10.77;4.20;;;2.50;99.90;;;;;;5048499;28;20421;-67
2022/12/07 01:44:16;;;;;;;7.40;3.73;;;2.50;99.90;;;;;;5034807;28;20884;-67
2022/12/07 01:46:50;;;;;;;5.83;4.10;;;2.50;99.90;;;;;;5027657;28;20456;-67
2022/12/07 01:49:24;;;;;;;12.53;5.57;;;2.40;99.90;;;;;;5050947;28;20477;-67
2022/12/07 01:51:57;;;;;;;13.20;8.37;;;2.40;99.90;;;;;;5043950;28;20422;-67
2022/12/07 01:54:22;;;;;;;12.37;6.87;;;2.40;99.90;;;;;;5057762;28;20429;-67
2022/12/07 01:56:52;;;;;;;10.90;6.97;;;2.40;99.90;;;;;;5057869;28;20436;-67
2022/12/07 01:59:22;;;;;;;21.33;10.07;;;2.40;99.90;;;;;;5054087;28;20665;-67
2022/12/07 02:01:48;;;;;;;20.33;9.93;;;2.40;99.90;;;;;;5042244;28;20415;-67
2022/12/07 02:04:14;;;;;;;18.43;9.00;;;2.40;99.90;;;;;;5044127;28;20516;-69
2022/12/07 02:06:42;;;;;;;23.73;10.93;;;2.40;99.90;;;;;;5039982;28;20825;-69
2022/12/07 02:09:08;;;;;;;10.57;7.03;;;2.40;99.90;;;;;;5058020;28;20440;-69
2022/12/07 02:11:34;;;;;;;15.50;7.50;;;2.30;99.90;;;;;;5053679;28;20913;-67
2022/12/07 02:13:59;;;;;;;13.17;7.47;;;2.30;99.90;;;;;;5057057;28;20184;-67
2022/12/07 02:16:54;;;;;;;12.07;5.67;;;2.20;99.90;;;;;;5055740;28;20193;-66
2022/12/07 02:19:38;;;;;;;12.47;6.33;;;2.20;99.90;;;;;;5049020;28;20189;-67
2022/12/07 02:22:30;;;;;;;10.93;5.13;;;2.10;99.90;;;;;;5030845;28;20424;-66
2022/12/07 02:25:15;;;;;;;12.83;6.47;;;2.00;99.90;;;;;;5041473;28;20508;-67
2022/12/07 02:27:50;;;;;;;15.80;7.17;;;1.90;99.90;;;;;;5057710;28;21094;-66
2022/12/07 02:30:28;;;;;;;11.27;5.43;;;1.90;99.90;;;;;;5057052;28;20408;-67
2022/12/07 02:33:19;;;;;;;12.90;6.53;;;1.90;99.90;;;;;;5056899;28;20415;-67
2022/12/07 02:35:53;;;;;;;10.20;6.03;;;1.90;99.90;;;;;;5049803;28;20451;-66
2022/12/07 02:38:24;;;;;;;15.43;4.97;;;1.90;99.90;;;;;;5054045;28;20448;-67
2022/12/07 02:41:31;;;;;;;11.43;5.60;;;1.90;99.90;;;;;;5054111;28;20461;-67
2022/12/07 02:44:03;;;;;;;9.20;5.87;;;1.90;99.90;;;;;;5026883;28;20746;-67
2022/12/07 02:46:40;;;;;;;11.63;6.20;;;1.90;99.90;;;;;;5037338;28;20981;-67
2022/12/07 02:49:08;;;;;;;12.60;5.90;;;1.90;99.90;;;;;;5057566;28;20646;-67
2022/12/07 02:51:38;;;;;;;12.20;5.90;;;1.90;99.90;;;;;;5038067;28;20507;-67
2022/12/07 02:54:13;;;;;;;13.23;4.97;;;1.90;99.90;;;;;;5047971;28;20908;-67
2022/12/07 02:56:49;;;;;;;10.10;4.33;;;1.80;99.90;;;;;;5057471;28;20784;-67
2022/12/07 02:59:45;;;;;;;13.00;5.90;;;1.80;99.90;;;;;;5046942;28;20447;-66
2022/12/07 03:02:49;;;;;;;9.80;4.70;;;1.80;99.90;;;;;;5053840;28;20420;-67
2022/12/07 03:05:29;;;;;;;8.83;4.40;;;1.80;99.90;;;;;;5025147;28;20435;-67
2022/12/07 03:08:00;;;;;;;9.53;4.87;;;1.80;99.90;;;;;;5043656;28;20460;-67
2022/12/07 03:10:40;;;;;;;10.13;5.53;;;1.80;99.90;;;;;;5052312;28;20470;-67
2022/12/07 03:13:21;;;;;;;8.70;5.07;;;1.80;99.90;;;;;;5049911;28;20448;-67
2022/12/07 03:15:55;;;;;;;7.73;4.30;;;1.70;99.90;;;;;;5050363;28;20417;-67
2022/12/07 03:18:23;;;;;;;11.20;6.13;;;1.80;99.90;;;;;;5053038;28;20427;-66
2022/12/07 03:20:52;;;;;;;12.30;5.13;;;1.80;99.90;;;;;;5053476;28;20436;-67
2022/12/07 03:23:20;;;;;;;9.33;3.90;;;1.80;99.90;;;;;;5052884;28;20446;-66
2022/12/07 03:25:49;;;;;;;11.37;5.00;;;1.80;99.90;;;;;;5047814;28;20791;-67
2022/12/07 03:28:18;;;;;;;12.07;6.00;;;1.80;99.90;;;;;;5053159;28;20766;-67
2022/12/07 03:30:52;;;;;;;12.00;5.10;;;1.80;99.90;;;;;;5053644;28;20405;-67
2022/12/07 03:33:44;;;;;;;11.80;5.67;;;1.80;99.90;;;;;;5034397;28;20502;-66
2022/12/07 03:36:26;;;;;;;10.87;4.70;;;1.80;99.90;;;;;;5053844;28;20416;-67
2022/12/07 03:39:02;;;;;;;12.63;5.77;;;1.80;99.90;;;;;;5041660;28;20412;-66
2022/12/07 03:41:32;;;;;;;8.47;4.93;;;1.70;99.90;;;;;;5037686;28;20419;-66
2022/12/07 03:43:59;;;;;;;9.73;5.20;;;1.70;99.90;;;;;;5037426;28;20499;-67
2022/12/07 03:46:33;;;;;;;11.57;5.07;;;1.70;99.90;;;;;;5032412;28;20781;-67
2022/12/07 03:49:11;;;;;;;9.60;4.47;;;1.70;99.90;;;;;;5047905;28;20414;-67
2022/12/07 03:51:46;;;;;;;8.73;5.10;;;1.70;99.90;;;;;;5044857;28;20412;-67
2022/12/07 03:54:34;;;;;;;11.90;5.20;;;1.70;99.90;;;;;;5052757;28;20415;-66
2022/12/07 03:57:01;;;;;;;9.70;5.30;;;1.70;99.90;;;;;;5053086;28;20413;-66
2022/12/07 03:59:28;;;;;;;7.97;4.90;;;1.70;99.90;;;;;;5050605;28;20749;-67
2022/12/07 04:01:56;;;;;;;10.37;6.00;;;1.70;99.90;;;;;;5052366;28;20490;-67
2022/12/07 04:04:24;;;;;;;11.90;4.80;;;1.70;99.90;;;;;;5044294;28;20974;-67
2022/12/07 04:06:50;;;;;;;6.30;3.90;;;1.70;99.90;;;;;;5034262;28;20480;-67
2022/12/07 04:09:16;;;;;;;9.43;4.77;;;1.70;99.90;;;;;;5052623;28;20444;-67
2022/12/07 04:11:42;;;;;;;13.37;5.40;;;1.80;99.90;;;;;;5049436;28;20178;-67
2022/12/07 04:14:19;;;;;;;7.63;4.20;;;1.80;99.90;;;;;;5052221;28;20519;-66
2022/12/07 04:16:53;;;;;;;11.53;6.07;;;1.80;99.90;;;;;;5042756;28;20256;-67
2022/12/07 04:19:21;;;;;;;10.63;4.73;;;1.80;99.90;;;;;;5052614;28;20444;-67
2022/12/07 04:21:47;;;;;;;14.63;5.00;;;1.80;99.90;;;;;;5038446;28;20436;-67
2022/12/07 04:24:14;;;;;;;10.13;5.90;;;1.80;99.90;;;;;;5044568;28;20433;-66
2022/12/07 04:26:41;;;;;;;8.53;5.60;;;1.80;99.90;;;;;;5051416;28;20213;-66
2022/12/07 04:29:07;;;;;;;9.03;5.17;;;1.80;99.90;;;;;;5052302;28;20420;-67
2022/12/07 04:31:32;;;;;;;6.50;4.03;;;1.80;99.90;;;;;;5037794;28;20421;-67
2022/12/07 04:33:58;;;;;;;11.13;5.50;;;1.80;99.90;;;;;;5036299;28;20171;-67
2022/12/07 04:36:23;;;;;;;9.60;5.07;;;1.80;99.90;;;;;;5050780;28;20677;-67
2022/12/07 04:38:49;;;;;;;11.83;5.67;;;1.80;99.90;;;;;;5052342;28;20277;-67
2022/12/07 04:41:15;;;;;;;13.30;5.80;;;1.80;99.90;;;;;;5039529;28;20265;-67
2022/12/07 04:43:40;;;;;;;7.93;4.30;;;1.80;99.90;;;;;;5035933;28;20190;-67
2022/12/07 04:46:06;;;;;;;7.53;4.67;;;1.80;99.90;;;;;;5037341;28;20749;-67
2022/12/07 04:48:32;;;;;;;9.00;4.90;;;1.80;99.90;;;;;;5051175;28;20181;-67
2022/12/07 04:50:57;;;;;;;9.03;4.10;;;1.80;99.90;;;;;;5040639;28;20420;-67
2022/12/07 04:53:23;;;;;;;5.30;3.80;;;1.80;99.90;;;;;;5051568;28;20186;-67
2022/12/07 04:55:49;;;;;;;10.23;5.67;;;1.80;99.90;;;;;;5052043;28;20186;-67
2022/12/07 04:58:14;;;;;;;7.03;3.47;;;1.80;99.90;;;;;;5046267;28;20925;-67
2022/12/07 05:00:40;;;;;;;9.87;5.00;;;1.70;99.90;;;;;;5051530;28;20189;-67
2022/12/07 05:03:07;;;;;;;11.40;5.40;;;1.70;99.90;;;;;;5051334;28;20268;-67
2022/12/07 05:05:32;;;;;;;10.47;5.70;;;1.70;99.90;;;;;;5051765;28;20436;-67
2022/12/07 05:07:58;;;;;;;8.37;4.07;;;1.70;99.90;;;;;;5038388;28;20483;-66
2022/12/07 05:10:24;;;;;;;9.20;5.00;;;1.70;99.90;;;;;;5038271;28;20186;-67
2022/12/07 05:12:49;;;;;;;8.73;4.50;;;1.60;99.90;;;;;;5031664;28;20185;-66
2022/12/07 05:15:15;;;;;;;11.67;3.77;;;1.60;99.90;;;;;;5032116;28;20189;-67
2022/12/07 05:17:41;;;;;;;8.30;5.00;;;1.50;99.90;;;;;;5032545;28;20209;-67
2022/12/07 05:20:08;;;;;;;9.00;4.43;;;1.40;99.90;;;;;;5032512;28;20472;-67
2022/12/07 05:22:33;;;;;;;7.53;4.00;;;1.40;99.90;;;;;;5033018;28;20495;-66
2022/12/07 05:24:59;;;;;;;10.50;4.80;;;1.30;99.90;;;;;;5034674;28;20788;-67
2022/12/07 05:27:25;;;;;;;10.10;5.60;;;1.30;99.90;;;;;;5036539;28;20721;-66
2022/12/07 05:29:51;;;;;;;13.13;5.13;;;1.30;99.90;;;;;;5031618;28;20188;-67
2022/12/07 05:32:17;;;;;;;8.20;4.10;;;1.30;99.90;;;;;;5038002;28;20657;-67
2022/12/07 05:34:43;;;;;;;9.60;5.03;;;1.20;99.90;;;;;;5033703;28;20459;-66
2022/12/07 05:37:08;;;;;;;12.70;4.97;;;1.20;99.90;;;;;;5035031;28;20929;-67
2022/12/07 05:39:34;;;;;;;17.57;5.53;;;1.20;99.90;;;;;;5038064;28;20197;-67
2022/12/07 05:42:13;;;;;;;10.87;4.83;;;1.20;99.90;;;;;;5035777;28;20233;-67
2022/12/07 05:44:43;;;;;;;12.30;5.47;;;1.10;99.90;;;;;;5036307;28;20547;-67
2022/12/07 05:47:10;;;;;;;8.43;4.60;;;1.10;99.90;;;;;;5034203;28;20456;-67
2022/12/07 05:49:35;;;;;;;7.17;4.10;;;1.00;99.90;;;;;;5033230;28;20440;-67
2022/12/07 05:52:02;;;;;;;12.40;4.47;;;1.00;99.90;;;;;;5035299;28;20421;-66
2022/12/07 05:54:27;;;;;;;11.97;3.57;;;1.00;99.90;;;;;;5031328;28;20182;-67
2022/12/07 05:56:53;;;;;;;6.87;4.10;;;0.90;99.90;;;;;;5036381;28;20443;-67
2022/12/07 05:59:27;;;;;;;9.43;4.00;;;0.90;99.90;;;;;;5032504;28;20206;-67
2022/12/07 06:02:00;;;;;;;10.33;4.30;;;0.80;99.90;;;;;;5032250;28;20179;-67
2022/12/07 06:04:28;;;;;;;7.93;4.40;;;0.70;99.90;;;;;;5026423;28;20789;-67
2022/12/07 06:06:54;;;;;;;8.23;4.50;;;0.60;99.90;;;;;;5036746;28;20476;-67
2022/12/07 06:09:21;;;;;;;16.57;5.70;;;0.60;99.90;;;;;;5032129;28;20437;-67
2022/12/07 06:14:32;;;;;;;10.30;5.00;;;0.60;99.90;;;;;;5037075;28;20447;-67
2022/12/07 06:16:58;;;;;;;8.47;3.93;;;0.60;99.90;;;;;;5030790;28;20441;-67
2022/12/07 06:19:24;;;;;;;6.03;4.03;;;0.50;99.90;;;;;;5022012;28;20187;-67
2022/12/07 06:21:50;;;;;;;6.97;4.10;;;0.50;99.90;;;;;;5031553;28;20433;-67
2022/12/07 06:24:17;;;;;;;11.07;3.90;;;0.60;99.90;;;;;;5032201;28;20256;-67
2022/12/07 06:26:43;;;;;;;13.37;6.77;;;0.60;99.90;;;;;;5049969;28;20459;-67
2022/12/07 06:29:09;;;;;;;9.00;4.90;;;0.60;99.90;;;;;;5045798;28;20424;-67
2022/12/07 06:31:36;;;;;;;8.67;4.20;;;0.60;99.90;;;;;;5047663;28;20424;-67
2022/12/07 06:34:04;;;;;;;9.43;5.83;;;0.70;99.90;;;;;;5043452;28;20458;-67
2022/12/07 06:36:30;;;;;;;14.30;5.73;;;0.70;99.90;;;;;;5050753;28;20446;-67
2022/12/07 06:38:56;;;;;;;9.53;5.23;;;0.80;99.90;;;;;;5039631;28;20431;-67
2022/12/07 06:41:22;;;;;;;15.20;6.40;;;0.80;99.90;;;;;;5036994;28;20479;-67
2022/12/07 06:43:47;;;;;;;10.47;6.00;;;0.80;99.90;;;;;;5035981;28;20186;-67
2022/12/07 06:46:14;;;;;;;22.43;8.00;;;0.90;99.90;;;;;;5035674;28;21091;-67
2022/12/07 06:48:40;;;;;;;16.70;7.37;;;1.00;99.90;;;;;;5037246;28;20225;-67
2022/12/07 06:51:06;;;;;;;8.97;5.13;;;1.00;99.90;;;;;;5044479;28;20427;-67
2022/12/07 06:53:32;;;;;;;11.17;5.40;;;1.00;99.90;;;;;;5042486;28;20412;-67
2022/12/07 06:55:57;;;;;;;13.40;5.93;;;1.00;99.90;;;;;;5048810;28;20425;-67
2022/12/07 06:58:23;;;;;;;11.83;5.33;;;1.00;99.90;;;;;;5046791;28;20234;-67
2022/12/07 07:00:52;;;;;;;13.50;6.70;;;1.00;99.90;;;;;;5037100;28;20182;-67
2022/12/07 07:03:18;;;;;;;10.80;6.13;;;1.00;99.90;;;;;;5037265;28;20186;-67
2022/12/07 07:05:44;;;;;;;15.70;6.80;;;1.10;99.90;;;;;;5040073;28;20437;-68
2022/12/07 07:08:11;;;;;;;11.33;5.53;;;1.10;99.90;;;;;;5019599;28;20206;-67
2022/12/07 07:10:37;;;;;;;11.70;5.67;;;1.20;99.90;;;;;;5033562;28;20432;-67
2022/12/07 07:13:03;;;;;;;13.53;8.07;;;1.20;99.90;;;;;;5034970;28;20429;-67
2022/12/07 07:15:29;;;;;;;9.47;6.03;;;1.20;99.90;;;;;;5050431;28;20432;-67
2022/12/07 07:17:55;;;;;;;13.00;6.67;;;1.20;99.90;;;;;;5044839;28;20433;-67
2022/12/07 07:20:20;;;;;;;12.03;7.13;;;1.20;99.90;;;;;;5033899;28;20638;-67
2022/12/07 07:22:46;;;;;;;13.73;7.37;;;1.20;99.90;;;;;;5044064;28;20221;-67
2022/12/07 07:25:11;;;;;;;12.23;5.67;;;1.20;99.90;;;;;;5033718;28;20193;-67
2022/12/07 07:27:37;;;;;;;10.13;5.90;;;1.20;99.90;;;;;;5027930;28;20218;-67
2022/12/07 07:30:04;;;;;;;28.33;10.17;;;1.20;99.90;;;;;;5034040;28;20187;-67
2022/12/07 07:32:29;;;;;;;22.30;8.47;;;1.30;99.90;;;;;;5032535;28;20260;-67
2022/12/07 07:34:55;;;;;;;14.70;6.23;;;1.30;99.90;;;;;;5048776;28;20421;-67
2022/12/07 07:37:21;;;;;;;13.20;6.33;;;1.30;99.90;;;;;;5053410;28;20627;-68
2022/12/07 07:39:46;;;;;;;10.83;6.07;;;1.30;99.90;;;;;;5048496;28;20225;-69
2022/12/07 07:42:12;;;;;;;11.03;5.33;;;1.30;99.90;;;;;;5035806;28;20262;-67
2022/12/07 07:44:37;;;;;;;11.00;4.70;;;1.40;99.90;;;;;;5028695;28;20197;-74
2022/12/07 07:47:03;;;;;;;7.20;4.33;;;1.40;99.90;;;;;;5025308;28;20758;-74
2022/12/07 07:49:29;;;;;;;7.57;3.97;;;1.50;99.90;;;;;;5029541;28;20273;-71
2022/12/07 07:51:54;;;;;;;7.13;3.60;;;1.50;99.90;;;;;;5032349;28;20213;-70
2022/12/07 07:54:20;;;;;;;7.33;3.10;;;1.50;99.90;;;;;;5031072;28;20636;-71
2022/12/07 07:56:45;;;;;;;9.30;3.17;;;1.50;99.90;;;;;;5030971;28;20209;-67
2022/12/07 07:59:11;;;;;;;12.20;3.97;;;1.50;99.90;;;;;;5044127;28;20203;-67
2022/12/07 08:01:37;;;;;;;6.10;3.63;;;1.60;99.90;;;;;;5035179;28;20193;-67
2022/12/07 08:04:02;;;;;;;6.03;3.27;;;1.60;99.90;;;;;;5026458;28;20685;-67
2022/12/07 08:06:28;;;;;;;6.70;3.60;;;1.60;99.90;;;;;;5037213;28;20209;-68
2022/12/07 08:08:53;;;;;;;6.80;3.17;;;1.60;99.90;;;;;;5044048;28;20315;-67
2022/12/07 08:11:19;;;;;;;6.40;3.83;;;1.60;99.90;;;;;;5047662;28;20221;-67
2022/12/07 08:13:46;;;;;;;6.93;3.30;;;1.70;99.90;;;;;;5020270;28;20512;-67
2022/12/07 08:16:14;;;;;;;6.30;3.20;;;1.70;99.90;;;;;;5047246;28;20630;-67
2022/12/07 08:18:40;;;;;;;7.27;3.90;;;1.70;99.90;;;;;;5042924;28;20420;-67
2022/12/07 08:21:09;;;;;;;11.37;3.77;;;1.70;99.90;;;;;;5041468;28;20514;-67
2022/12/07 08:23:34;;;;;;;11.30;3.80;;;1.80;99.90;;;;;;5042659;28;20505;-67
2022/12/07 08:26:05;;;;;;;7.37;4.03;;;1.80;99.90;;;;;;5050976;28;20425;-67
2022/12/07 08:28:30;;;;;;;6.60;3.67;;;1.80;99.90;;;;;;5051529;28;20198;-67
2022/12/07 08:31:04;;;;;;;11.50;4.20;;;1.90;99.90;;;;;;5049673;28;20458;-67
2022/12/07 08:33:29;;;;;;;9.37;4.37;;;1.90;99.90;;;;;;5039227;28;20281;-67
2022/12/07 08:35:59;;;;;;;5.33;3.10;;;1.90;99.90;;;;;;5051024;28;20432;-67
2022/12/07 08:38:25;;;;;;;7.20;3.70;;;1.90;99.90;;;;;;5041102;28;20248;-67
2022/12/07 08:40:58;;;;;;;7.83;3.43;;;2.00;99.90;;;;;;5038516;28;20546;-67
2022/12/07 08:43:24;;;;;;;7.57;3.83;;;2.00;99.90;;;;;;5044669;28;20775;-67
2022/12/07 08:46:06;;;;;;;8.60;3.63;;;2.00;99.90;;;;;;5051796;28;20508;-67
2022/12/07 08:48:33;;;;;;;7.90;3.10;;;2.00;99.90;;;;;;5047464;28;20412;-68
2022/12/07 08:51:01;;;;;;;5.93;3.30;;;2.10;99.90;;;;;;5029370;28;20437;-67
2022/12/07 08:53:28;;;;;;;8.03;2.43;;;2.10;99.90;;;;;;5043153;28;20519;-67
2022/12/07 08:55:53;;;;;;;6.23;3.40;;;2.10;99.90;;;;;;5044832;28;20416;-67
2022/12/07 08:58:19;;;;;;;7.13;3.73;;;2.20;99.90;;;;;;5029712;28;20453;-67
2022/12/07 09:00:44;;;;;;;6.73;3.37;;;2.20;99.90;;;;;;5037989;28;20312;-67
2022/12/07 09:03:10;;;;;;;7.47;3.70;;;2.20;99.90;;;;;;5047902;28;20990;-68
2022/12/07 09:05:36;;;;;;;6.97;3.63;;;2.30;99.90;;;;;;5036729;28;20223;-67
2022/12/07 09:08:02;;;;;;;10.60;3.63;;;2.30;99.90;;;;;;5051527;28;20217;-68
2022/12/07 09:10:29;;;;;;;4.23;2.33;;;2.30;99.90;;;;;;5051263;28;20189;-67
2022/12/07 09:12:54;;;;;;;5.10;2.40;;;2.40;99.90;;;;;;5023958;28;20436;-68
2022/12/07 09:15:20;;;;;;;8.70;2.80;;;2.40;99.90;;;;;;5031386;28;20471;-67
2022/12/07 09:17:46;;;;;;;5.43;2.53;;;2.50;99.90;;;;;;5045912;28;20178;-68
2022/12/07 09:20:12;;;;;;;6.93;2.53;;;2.60;99.90;;;;;;5032374;28;20261;-67
2022/12/07 09:22:38;;;;;;;3.27;2.30;;;2.60;99.90;;;;;;5037590;28;20189;-68
2022/12/07 09:25:04;;;;;;;4.50;2.67;;;2.60;99.90;;;;;;5030960;28;20452;-68
2022/12/07 09:27:30;;;;;;;9.40;2.70;;;2.60;99.90;;;;;;5035715;28;20251;-68
2022/12/07 09:29:56;;;;;;;3.90;2.33;;;2.70;99.90;;;;;;5027421;28;20794;-68
2022/12/07 09:32:22;;;;;;;4.40;2.70;;;2.60;99.90;;;;;;5035344;28;20405;-68
2022/12/07 09:34:48;;;;;;;7.70;3.00;;;2.70;99.90;;;;;;5041670;28;20580;-68
2022/12/07 09:37:14;;;;;;;9.23;3.87;;;2.80;99.90;;;;;;5049019;28;20431;-67
2022/12/07 09:39:40;;;;;;;4.70;2.30;;;2.80;99.90;;;;;;5046723;28;20213;-68
2022/12/07 09:42:08;;;;;;;3.87;2.20;;;2.80;99.90;;;;;;5046008;28;20401;-68
2022/12/07 09:44:35;;;;;;;6.23;3.00;;;2.90;99.90;;;;;;5049350;28;20451;-72
2022/12/07 09:47:02;;;;;;;5.10;2.80;;;2.90;99.90;;;;;;5035750;28;20498;-67
2022/12/07 09:49:32;;;;;;;8.23;3.27;;;3.00;99.90;;;;;;5024500;28;20879;-67
2022/12/07 09:52:19;;;;;;;4.57;2.40;;;3.00;99.90;;;;;;5048073;28;20428;-67
2022/12/07 09:54:48;;;;;;;8.77;2.90;;;2.90;99.90;;;;;;5041729;28;20438;-67
2022/12/07 09:57:13;;;;;;;3.77;2.00;;;3.00;99.90;;;;;;5031958;28;20440;-68
2022/12/07 09:59:42;;;;;;;4.97;2.40;;;3.10;99.90;;;;;;5032272;28;20451;-68
2022/12/07 10:02:41;;;;;;;4.33;2.13;;;3.10;99.90;;;;;;5034392;28;20251;-68
2022/12/07 10:05:15;;;;;;;5.83;2.70;;;3.10;99.90;;;;;;5031742;28;20433;-68
2022/12/07 10:07:40;;;;;;;8.30;3.90;;;3.10;99.90;;;;;;5022527;28;20503;-68
2022/12/07 10:10:14;;;;;;;5.33;2.70;;;3.20;99.90;;;;;;5025600;28;20918;-67
2022/12/07 10:13:10;;;;;;;5.23;2.20;;;3.30;99.90;;;;;;5027821;28;20186;-68
2022/12/07 10:15:42;;;;;;;6.70;3.27;;;3.30;99.90;;;;;;5032984;28;20425;-68
2022/12/07 10:18:32;;;;;;;4.33;2.43;;;3.30;99.90;;;;;;5038780;28;20826;-68
2022/12/07 10:21:11;;;;;;;4.30;2.30;;;3.40;99.90;;;;;;5035256;28;20429;-68
2022/12/07 10:23:42;;;;;;;3.47;2.10;;;3.40;99.90;;;;;;5027640;28;20409;-68
2022/12/07 10:26:28;;;;;;;4.30;2.53;;;3.50;99.90;;;;;;5036498;28;20481;-68
2022/12/07 10:28:56;;;;;;;5.57;3.03;;;3.40;99.90;;;;;;5029507;28;20424;-68
2022/12/07 10:31:23;;;;;;;6.97;2.37;;;3.40;99.90;;;;;;5015395;28;20433;-68
2022/12/07 10:33:59;;;;;;;4.73;2.80;;;3.40;99.90;;;;;;5033705;28;20531;-68
2022/12/07 10:36:36;;;;;;;5.50;2.57;;;3.50;99.90;;;;;;5037349;28;20917;-68
2022/12/07 10:39:03;;;;;;;5.40;2.47;;;3.40;99.90;;;;;;5031768;28;20534;-68
2022/12/07 10:41:29;;;;;;;6.20;3.27;;;3.40;99.90;;;;;;5030601;28;20479;-68
2022/12/07 10:43:57;;;;;;;6.60;2.37;;;3.50;99.90;;;;;;5032481;28;20432;-68
2022/12/07 10:46:34;;;;;;;5.23;2.80;;;3.60;99.90;;;;;;5033543;28;20198;-68
2022/12/07 10:49:17;;;;;;;5.90;2.60;;;3.70;99.90;;;;;;5032511;28;20929;-68
2022/12/07 10:51:49;;;;;;;5.50;2.53;;;3.60;99.90;;;;;;5029028;28;20475;-68
2022/12/07 10:54:57;;;;;;;4.93;2.20;;;3.60;99.90;;;;;;5028787;28;20841;-68
2022/12/07 10:57:46;;;;;;;4.73;2.33;;;3.70;99.90;;;;;;5031917;28;20935;-68
2022/12/07 11:00:16;;;;;;;5.40;2.67;;;3.70;99.90;;;;;;5003003;28;20448;-68
2022/12/07 11:03:02;;;;;;;5.53;2.30;;;3.60;99.90;;;;;;5030258;28;20455;-68
2022/12/07 11:05:47;;;;;;;5.20;3.13;;;3.70;99.90;;;;;;5037888;28;20436;-68
2022/12/07 11:08:30;;;;;;;4.13;2.63;;;3.70;99.90;;;;;;5035765;28;20459;-68
2022/12/07 11:11:04;;;;;;;5.57;3.60;;;3.70;99.90;;;;;;5034010;28;20992;-68
2022/12/07 11:14:08;;;;;;;6.53;2.83;;;3.70;99.90;;;;;;5036567;28;20512;-68
2022/12/07 11:16:50;;;;;;;9.13;3.73;;;3.80;99.90;;;;;;5040566;28;20429;-69
2022/12/07 11:19:39;;;;;;;5.67;2.27;;;3.80;99.90;;;;;;5034121;28;20431;-68
2022/12/07 11:22:20;;;;;;;4.43;2.50;;;3.80;99.90;;;;;;5027445;28;20437;-68
2022/12/07 11:25:22;;;;;;;6.30;3.00;;;3.80;99.90;;;;;;5035515;28;20533;-68
2022/12/07 11:28:03;;;;;;;8.20;2.20;;;3.70;99.90;;;;;;5033156;28;20468;-68
2022/12/07 11:30:40;;;;;;;9.00;2.80;;;3.80;99.90;;;;;;5029218;28;20429;-68
2022/12/07 11:33:21;;;;;;;5.90;2.80;;;3.80;99.90;;;;;;5030490;28;20640;-68
2022/12/07 11:36:08;;;;;;;4.07;2.67;;;3.80;99.90;;;;;;5033330;28;21205;-68
2022/12/07 11:38:54;;;;;;;7.00;2.40;;;3.80;99.90;;;;;;5036400;28;20779;-68
2022/12/07 11:41:28;;;;;;;2.93;1.90;;;3.90;99.90;;;;;;5037430;28;21116;-68
2022/12/07 11:44:02;;;;;;;4.50;2.47;;;3.90;99.90;;;;;;5034876;28;20767;-68
2022/12/07 11:46:44;;;;;;;5.40;2.93;;;3.90;99.90;;;;;;5039538;28;20466;-68
2022/12/07 11:49:35;;;;;;;5.10;2.40;;;3.90;99.90;;;;;;5042592;28;20894;-68
2022/12/07 11:52:04;;;;;;;30.00;15.13;;;4.00;99.90;;;;;;5005001;28;20796;-68
2022/12/07 11:54:35;;;;;;;7.90;2.83;;;4.10;99.90;;;;;;5032692;28;20512;-68
2022/12/07 11:57:09;;;;;;;7.50;4.33;;;4.00;99.90;;;;;;5031904;28;20797;-68
2022/12/07 11:59:44;;;;;;;7.70;3.73;;;4.00;99.90;;;;;;5030897;28;20433;-68
2022/12/07 12:02:15;;;;;;;3.87;2.00;;;4.00;99.90;;;;;;5032719;28;20424;-68
2022/12/07 12:05:13;;;;;;;4.80;1.77;;;4.10;99.90;;;;;;5036610;28;21064;-68
2022/12/07 12:07:41;;;;;;;8.53;2.60;;;4.10;99.90;;;;;;5036156;28;20483;-68
2022/12/07 12:10:24;;;;;;;5.47;2.30;;;4.10;99.90;;;;;;5039121;28;20913;-68
2022/12/07 12:13:05;;;;;;;6.10;2.77;;;4.10;99.90;;;;;;5025697;28;20517;-68
2022/12/07 12:16:04;;;;;;;6.77;2.53;;;4.10;99.90;;;;;;5035610;28;20432;-68
2022/12/07 12:18:50;;;;;;;5.37;2.23;;;4.10;99.90;;;;;;5038062;28;20444;-68
2022/12/07 12:21:18;;;;;;;5.70;2.53;;;4.10;99.90;;;;;;5032809;28;20441;-68
2022/12/07 12:23:46;;;;;;;5.03;2.27;;;4.10;99.90;;;;;;5042082;28;20928;-68
2022/12/07 12:26:21;;;;;;;5.20;2.00;;;4.10;99.90;;;;;;5036504;28;20563;-68
2022/12/07 12:28:52;;;;;;;5.73;1.83;;;4.10;99.90;;;;;;5029061;28;20948;-68
2022/12/07 12:31:20;;;;;;;3.87;2.27;;;4.10;99.90;;;;;;5030813;28;21362;-68
2022/12/07 12:33:51;;;;;;;5.60;2.20;;;4.00;99.90;;;;;;5028714;28;20860;-68
2022/12/07 12:36:42;;;;;;;8.50;3.00;;;4.00;99.90;;;;;;5030957;28;20445;-68
2022/12/07 12:39:10;;;;;;;3.63;1.90;;;4.00;99.90;;;;;;5032806;28;20443;-68
2022/12/07 12:41:39;;;;;;;3.17;1.77;;;4.00;99.90;;;;;;5037686;28;20467;-67
2022/12/07 12:44:19;;;;;;;5.07;2.30;;;4.10;99.90;;;;;;5030562;28;20441;-67
2022/12/07 12:46:48;;;;;;;3.67;2.10;;;4.10;99.90;;;;;;5026325;28;20563;-68
2022/12/07 12:49:20;;;;;;;5.80;1.73;;;4.10;99.90;;;;;;5034714;28;20483;-68
2022/12/07 12:52:06;;;;;;;4.03;1.83;;;4.10;99.90;;;;;;5035303;28;20964;-68
2022/12/07 12:54:35;;;;;;;5.13;2.53;;;4.10;99.90;;;;;;5019408;28;20460;-68
2022/12/07 12:57:16;;;;;;;5.77;2.80;;;4.10;99.90;;;;;;5038277;28;20443;-68
2022/12/07 12:59:47;;;;;;;5.77;2.70;;;4.10;99.90;;;;;;5032642;28;20483;-68
2022/12/07 13:02:27;;;;;;;4.03;2.80;;;4.10;99.90;;;;;;5031570;28;20444;-68
2022/12/07 13:05:00;;;;;;;3.20;2.27;;;4.10;99.90;;;;;;5032378;28;20798;-68
2022/12/07 13:07:47;;;;;;;3.60;2.43;;;4.10;99.90;;;;;;5028938;28;20475;-68
2022/12/07 13:10:39;;;;;;;4.73;2.33;;;4.10;99.90;;;;;;5032544;28;20437;-68
2022/12/07 13:13:11;;;;;;;5.50;2.53;;;4.10;99.90;;;;;;5016925;28;20480;-68
2022/12/07 13:15:39;;;;;;;6.03;2.57;;;4.10;99.90;;;;;;5018544;28;20487;-68